sensor_id;sensor_type;location;lat;lon;timestamp;temperature;humidity
25933;DHT22;13731;51.166;4.474;2024-02-14T00:00:38;9.30;99.90
25933;DHT22;13731;51.166;4.474;2024-02-14T00:03:06;9.30;99.90
25933;DHT22;13731;51.166;4.474;2024-02-14T00:05:32;9.30;99.90
25933;DHT22;13731;51.166;4.474;2024-02-14T00:07:58;9.30;99.90
25933;DHT22;13731;51.166;4.474;2024-02-14T00:10:23;9.30;99.90
25933;DHT22;13731;51.166;4.474;2024-02-14T00:12:49;9.40;99.90
25933;DHT22;13731;51.166;4.474;2024-02-14T00:15:15;9.40;99.90
25933;DHT22;13731;51.166;4.474;2024-02-14T00:17:41;9.50;99.90
25933;DHT22;13731;51.166;4.474;2024-02-14T00:20:08;9.50;99.90
25933;DHT22;13731;51.166;4.474;2024-02-14T00:22:38;9.40;99.90
25933;DHT22;13731;51.166;4.474;2024-02-14T00:25:04;9.40;99.90
25933;DHT22;13731;51.166;4.474;2024-02-14T00:27:30;9.50;99.90
25933;DHT22;13731;51.166;4.474;2024-02-14T00:29:56;9.50;99.90
25933;DHT22;13731;51.166;4.474;2024-02-14T00:32:21;9.60;99.90
25933;DHT22;13731;51.166;4.474;2024-02-14T00:34:47;9.60;99.90
25933;DHT22;13731;51.166;4.474;2024-02-14T00:37:14;9.60;99.90
25933;DHT22;13731;51.166;4.474;2024-02-14T00:39:40;9.70;99.90
25933;DHT22;13731;51.166;4.474;2024-02-14T00:42:06;9.70;99.90
25933;DHT22;13731;51.166;4.474;2024-02-14T00:44:31;9.70;99.90
25933;DHT22;13731;51.166;4.474;2024-02-14T00:46:57;9.70;99.90
25933;DHT22;13731;51.166;4.474;2024-02-14T00:49:27;9.70;99.90
25933;DHT22;13731;51.166;4.474;2024-02-14T00:51:53;9.80;99.90
25933;DHT22;13731;51.166;4.474;2024-02-14T00:54:19;9.60;99.90
25933;DHT22;13731;51.166;4.474;2024-02-14T00:56:45;9.60;99.90
25933;DHT22;13731;51.166;4.474;2024-02-14T00:59:10;9.70;99.90
25933;DHT22;13731;51.166;4.474;2024-02-14T01:01:36;9.70;99.90
25933;DHT22;13731;51.166;4.474;2024-02-14T01:04:02;9.70;99.90
25933;DHT22;13731;51.166;4.474;2024-02-14T01:06:29;9.70;99.90
25933;DHT22;13731;51.166;4.474;2024-02-14T01:08:55;9.70;99.90
25933;DHT22;13731;51.166;4.474;2024-02-14T01:11:21;9.70;99.90
25933;DHT22;13731;51.166;4.474;2024-02-14T01:13:47;9.70;99.90
25933;DHT22;13731;51.166;4.474;2024-02-14T01:16:13;9.70;99.90
25933;DHT22;13731;51.166;4.474;2024-02-14T01:18:39;9.50;99.90
25933;DHT22;13731;51.166;4.474;2024-02-14T01:21:05;9.40;99.90
25933;DHT22;13731;51.166;4.474;2024-02-14T01:23:31;9.40;99.90
25933;DHT22;13731;51.166;4.474;2024-02-14T01:25:57;9.50;99.90
25933;DHT22;13731;51.166;4.474;2024-02-14T01:28:22;9.40;99.90
25933;DHT22;13731;51.166;4.474;2024-02-14T01:30:48;9.40;99.90
25933;DHT22;13731;51.166;4.474;2024-02-14T01:33:14;9.30;99.90
25933;DHT22;13731;51.166;4.474;2024-02-14T01:35:40;9.40;99.90
25933;DHT22;13731;51.166;4.474;2024-02-14T01:38:08;9.30;99.90
25933;DHT22;13731;51.166;4.474;2024-02-14T01:40:33;9.40;99.90
25933;DHT22;13731;51.166;4.474;2024-02-14T01:42:59;9.40;99.90
25933;DHT22;13731;51.166;4.474;2024-02-14T01:45:26;9.50;99.90
25933;DHT22;13731;51.166;4.474;2024-02-14T01:47:53;9.50;99.90
25933;DHT22;13731;51.166;4.474;2024-02-14T01:50:19;9.50;99.90
25933;DHT22;13731;51.166;4.474;2024-02-14T01:52:54;9.50;1.00
25933;DHT22;13731;51.166;4.474;2024-02-14T01:55:21;9.50;1.00
25933;DHT22;13731;51.166;4.474;2024-02-14T01:57:47;9.50;1.00
25933;DHT22;13731;51.166;4.474;2024-02-14T02:00:13;9.60;1.00
25933;DHT22;13731;51.166;4.474;2024-02-14T02:02:43;9.60;1.00
25933;DHT22;13731;51.166;4.474;2024-02-14T02:05:13;9.60;1.00
25933;DHT22;13731;51.166;4.474;2024-02-14T02:07:39;9.60;1.00
25933;DHT22;13731;51.166;4.474;2024-02-14T02:10:09;9.60;1.00
25933;DHT22;13731;51.166;4.474;2024-02-14T02:12:34;9.60;1.00
25933;DHT22;13731;51.166;4.474;2024-02-14T02:15:06;9.50;1.00
25933;DHT22;13731;51.166;4.474;2024-02-14T02:17:33;9.60;1.00
25933;DHT22;13731;51.166;4.474;2024-02-14T02:20:01;9.50;12.90
25933;DHT22;13731;51.166;4.474;2024-02-14T02:22:27;9.60;87.90
25933;DHT22;13731;51.166;4.474;2024-02-14T02:24:59;9.70;15.70
25933;DHT22;13731;51.166;4.474;2024-02-14T02:27:24;9.70;1.00
25933;DHT22;13731;51.166;4.474;2024-02-14T02:29:51;9.60;1.00
25933;DHT22;13731;51.166;4.474;2024-02-14T02:32:16;9.70;1.00
25933;DHT22;13731;51.166;4.474;2024-02-14T02:34:43;9.70;1.00
25933;DHT22;13731;51.166;4.474;2024-02-14T02:37:11;9.70;1.00
25933;DHT22;13731;51.166;4.474;2024-02-14T02:39:37;9.70;1.00
25933;DHT22;13731;51.166;4.474;2024-02-14T02:42:03;9.80;1.00
25933;DHT22;13731;51.166;4.474;2024-02-14T02:44:29;9.80;1.00
25933;DHT22;13731;51.166;4.474;2024-02-14T02:46:54;9.80;99.90
25933;DHT22;13731;51.166;4.474;2024-02-14T02:49:21;9.80;99.90
25933;DHT22;13731;51.166;4.474;2024-02-14T02:51:47;9.90;99.90
25933;DHT22;13731;51.166;4.474;2024-02-14T02:54:13;9.80;99.90
25933;DHT22;13731;51.166;4.474;2024-02-14T02:56:39;9.70;99.90
25933;DHT22;13731;51.166;4.474;2024-02-14T02:59:06;9.70;1.00
25933;DHT22;13731;51.166;4.474;2024-02-14T03:01:35;9.70;1.00
25933;DHT22;13731;51.166;4.474;2024-02-14T03:04:01;9.80;1.00
25933;DHT22;13731;51.166;4.474;2024-02-14T03:06:27;9.70;1.00
25933;DHT22;13731;51.166;4.474;2024-02-14T03:08:53;9.70;99.90
25933;DHT22;13731;51.166;4.474;2024-02-14T03:11:22;9.60;99.90
25933;DHT22;13731;51.166;4.474;2024-02-14T03:13:48;9.60;99.90
25933;DHT22;13731;51.166;4.474;2024-02-14T03:16:14;9.70;99.90
25933;DHT22;13731;51.166;4.474;2024-02-14T03:18:40;9.60;99.90
25933;DHT22;13731;51.166;4.474;2024-02-14T03:21:06;9.50;99.90
25933;DHT22;13731;51.166;4.474;2024-02-14T03:23:32;9.60;99.90
25933;DHT22;13731;51.166;4.474;2024-02-14T03:25:57;9.70;99.90
25933;DHT22;13731;51.166;4.474;2024-02-14T03:28:23;9.70;99.90
25933;DHT22;13731;51.166;4.474;2024-02-14T03:30:51;9.70;99.90
25933;DHT22;13731;51.166;4.474;2024-02-14T03:33:17;9.70;99.90
25933;DHT22;13731;51.166;4.474;2024-02-14T03:35:43;9.80;99.90
25933;DHT22;13731;51.166;4.474;2024-02-14T03:38:10;9.70;99.90
25933;DHT22;13731;51.166;4.474;2024-02-14T03:40:36;9.80;99.90
25933;DHT22;13731;51.166;4.474;2024-02-14T03:43:04;9.80;99.90
25933;DHT22;13731;51.166;4.474;2024-02-14T03:45:31;9.80;99.90
25933;DHT22;13731;51.166;4.474;2024-02-14T03:47:57;9.70;99.90
25933;DHT22;13731;51.166;4.474;2024-02-14T03:50:23;9.80;99.90
25933;DHT22;13731;51.166;4.474;2024-02-14T03:52:49;9.70;99.90
25933;DHT22;13731;51.166;4.474;2024-02-14T03:55:15;9.70;99.90
25933;DHT22;13731;51.166;4.474;2024-02-14T03:57:43;9.80;99.90
25933;DHT22;13731;51.166;4.474;2024-02-14T04:00:11;9.80;99.90
25933;DHT22;13731;51.166;4.474;2024-02-14T04:02:39;9.80;99.90
25933;DHT22;13731;51.166;4.474;2024-02-14T04:05:05;9.90;99.90
25933;DHT22;13731;51.166;4.474;2024-02-14T04:07:32;9.90;99.90
25933;DHT22;13731;51.166;4.474;2024-02-14T04:09:59;9.80;99.90
25933;DHT22;13731;51.166;4.474;2024-02-14T04:12:25;9.80;99.90
25933;DHT22;13731;51.166;4.474;2024-02-14T04:14:51;9.80;99.90
25933;DHT22;13731;51.166;4.474;2024-02-14T04:17:17;9.80;99.90
25933;DHT22;13731;51.166;4.474;2024-02-14T04:19:42;9.80;99.90
25933;DHT22;13731;51.166;4.474;2024-02-14T04:22:08;9.80;99.90
25933;DHT22;13731;51.166;4.474;2024-02-14T04:24:34;9.70;99.90
25933;DHT22;13731;51.166;4.474;2024-02-14T04:27:00;9.70;99.90
25933;DHT22;13731;51.166;4.474;2024-02-14T04:29:28;9.70;99.90
25933;DHT22;13731;51.166;4.474;2024-02-14T04:31:56;9.70;99.90
25933;DHT22;13731;51.166;4.474;2024-02-14T04:34:22;9.80;99.90
25933;DHT22;13731;51.166;4.474;2024-02-14T04:36:47;9.80;99.90
25933;DHT22;13731;51.166;4.474;2024-02-14T04:39:13;9.80;99.90
25933;DHT22;13731;51.166;4.474;2024-02-14T04:41:39;9.90;99.90
25933;DHT22;13731;51.166;4.474;2024-02-14T04:44:05;9.90;99.90
25933;DHT22;13731;51.166;4.474;2024-02-14T04:46:34;9.90;99.90
25933;DHT22;13731;51.166;4.474;2024-02-14T04:49:03;9.90;99.90
25933;DHT22;13731;51.166;4.474;2024-02-14T04:51:29;9.90;99.90
25933;DHT22;13731;51.166;4.474;2024-02-14T04:53:55;9.90;99.90
25933;DHT22;13731;51.166;4.474;2024-02-14T04:56:27;9.90;99.90
25933;DHT22;13731;51.166;4.474;2024-02-14T04:58:53;9.90;99.90
25933;DHT22;13731;51.166;4.474;2024-02-14T05:01:19;9.90;99.90
25933;DHT22;13731;51.166;4.474;2024-02-14T05:03:44;9.90;99.90
25933;DHT22;13731;51.166;4.474;2024-02-14T05:06:10;10.10;99.90
25933;DHT22;13731;51.166;4.474;2024-02-14T05:08:36;10.10;99.90
25933;DHT22;13731;51.166;4.474;2024-02-14T05:11:02;10.20;99.90
25933;DHT22;13731;51.166;4.474;2024-02-14T05:13:29;10.20;99.90
25933;DHT22;13731;51.166;4.474;2024-02-14T05:15:55;10.10;99.90
25933;DHT22;13731;51.166;4.474;2024-02-14T05:18:21;10.10;99.90
25933;DHT22;13731;51.166;4.474;2024-02-14T05:20:47;10.20;99.90
25933;DHT22;13731;51.166;4.474;2024-02-14T05:23:13;10.30;99.90
25933;DHT22;13731;51.166;4.474;2024-02-14T05:25:39;10.20;99.90
25933;DHT22;13731;51.166;4.474;2024-02-14T05:28:05;10.20;99.90
25933;DHT22;13731;51.166;4.474;2024-02-14T05:30:30;10.20;99.90
25933;DHT22;13731;51.166;4.474;2024-02-14T05:32:57;10.20;99.90
25933;DHT22;13731;51.166;4.474;2024-02-14T05:35:23;10.20;99.90
25933;DHT22;13731;51.166;4.474;2024-02-14T05:37:49;10.20;99.90
25933;DHT22;13731;51.166;4.474;2024-02-14T05:40:16;10.20;99.90
25933;DHT22;13731;51.166;4.474;2024-02-14T05:42:42;10.30;99.90
25933;DHT22;13731;51.166;4.474;2024-02-14T05:45:09;10.30;99.90
25933;DHT22;13731;51.166;4.474;2024-02-14T05:47:35;10.20;99.90
25933;DHT22;13731;51.166;4.474;2024-02-14T05:50:01;10.30;99.90
25933;DHT22;13731;51.166;4.474;2024-02-14T05:52:27;10.30;99.90
25933;DHT22;13731;51.166;4.474;2024-02-14T05:54:53;10.30;99.90
25933;DHT22;13731;51.166;4.474;2024-02-14T05:57:19;10.30;99.90
25933;DHT22;13731;51.166;4.474;2024-02-14T05:59:45;10.30;99.90
25933;DHT22;13731;51.166;4.474;2024-02-14T06:02:11;10.20;99.90
25933;DHT22;13731;51.166;4.474;2024-02-14T06:04:37;10.20;99.90
25933;DHT22;13731;51.166;4.474;2024-02-14T06:07:03;10.20;99.90
25933;DHT22;13731;51.166;4.474;2024-02-14T06:09:30;10.20;99.90
25933;DHT22;13731;51.166;4.474;2024-02-14T06:11:56;10.30;99.90
25933;DHT22;13731;51.166;4.474;2024-02-14T06:14:22;10.20;99.90
25933;DHT22;13731;51.166;4.474;2024-02-14T06:16:47;10.30;99.90
25933;DHT22;13731;51.166;4.474;2024-02-14T06:19:13;10.30;99.90
25933;DHT22;13731;51.166;4.474;2024-02-14T06:21:39;10.30;99.90
25933;DHT22;13731;51.166;4.474;2024-02-14T06:24:04;10.30;99.90
25933;DHT22;13731;51.166;4.474;2024-02-14T06:26:30;10.30;99.90
25933;DHT22;13731;51.166;4.474;2024-02-14T06:28:56;10.30;99.90
25933;DHT22;13731;51.166;4.474;2024-02-14T06:31:22;10.30;99.90
25933;DHT22;13731;51.166;4.474;2024-02-14T06:33:48;10.30;99.90
25933;DHT22;13731;51.166;4.474;2024-02-14T06:36:14;10.30;99.90
25933;DHT22;13731;51.166;4.474;2024-02-14T06:38:39;10.40;99.90
25933;DHT22;13731;51.166;4.474;2024-02-14T06:41:05;10.40;99.90
25933;DHT22;13731;51.166;4.474;2024-02-14T06:43:31;10.40;99.90
25933;DHT22;13731;51.166;4.474;2024-02-14T06:45:57;10.40;99.90
25933;DHT22;13731;51.166;4.474;2024-02-14T06:48:22;10.40;99.90
25933;DHT22;13731;51.166;4.474;2024-02-14T06:50:49;10.40;99.90
25933;DHT22;13731;51.166;4.474;2024-02-14T06:53:15;10.50;99.90
25933;DHT22;13731;51.166;4.474;2024-02-14T06:55:41;10.50;99.90
25933;DHT22;13731;51.166;4.474;2024-02-14T06:58:07;10.50;99.90
25933;DHT22;13731;51.166;4.474;2024-02-14T07:00:33;10.50;99.90
25933;DHT22;13731;51.166;4.474;2024-02-14T07:02:59;10.60;99.90
25933;DHT22;13731;51.166;4.474;2024-02-14T07:05:25;10.50;99.90
25933;DHT22;13731;51.166;4.474;2024-02-14T07:07:53;10.50;99.90
25933;DHT22;13731;51.166;4.474;2024-02-14T07:10:19;10.50;99.90
25933;DHT22;13731;51.166;4.474;2024-02-14T07:12:44;10.50;99.90
25933;DHT22;13731;51.166;4.474;2024-02-14T07:15:10;10.50;99.90
25933;DHT22;13731;51.166;4.474;2024-02-14T07:17:36;10.50;99.90
25933;DHT22;13731;51.166;4.474;2024-02-14T07:20:04;10.50;99.90
25933;DHT22;13731;51.166;4.474;2024-02-14T07:22:30;10.60;99.90
25933;DHT22;13731;51.166;4.474;2024-02-14T07:24:56;10.50;99.90
25933;DHT22;13731;51.166;4.474;2024-02-14T07:27:21;10.50;99.90
25933;DHT22;13731;51.166;4.474;2024-02-14T07:29:49;10.50;99.90
25933;DHT22;13731;51.166;4.474;2024-02-14T07:32:15;10.50;99.90
25933;DHT22;13731;51.166;4.474;2024-02-14T07:34:42;10.50;99.90
25933;DHT22;13731;51.166;4.474;2024-02-14T07:37:07;10.60;99.90
25933;DHT22;13731;51.166;4.474;2024-02-14T07:39:33;10.60;99.90
25933;DHT22;13731;51.166;4.474;2024-02-14T07:42:03;10.60;99.90
25933;DHT22;13731;51.166;4.474;2024-02-14T07:44:29;10.60;99.90
25933;DHT22;13731;51.166;4.474;2024-02-14T07:46:54;10.60;99.90
25933;DHT22;13731;51.166;4.474;2024-02-14T07:49:20;10.70;99.90
25933;DHT22;13731;51.166;4.474;2024-02-14T07:51:46;10.70;99.90
25933;DHT22;13731;51.166;4.474;2024-02-14T07:54:13;10.70;99.90
25933;DHT22;13731;51.166;4.474;2024-02-14T07:56:39;10.80;99.90
25933;DHT22;13731;51.166;4.474;2024-02-14T07:59:04;10.90;99.90
25933;DHT22;13731;51.166;4.474;2024-02-14T08:01:30;11.00;99.90
25933;DHT22;13731;51.166;4.474;2024-02-14T08:03:57;10.90;99.90
25933;DHT22;13731;51.166;4.474;2024-02-14T08:06:23;10.80;99.90
25933;DHT22;13731;51.166;4.474;2024-02-14T08:08:49;10.80;99.90
25933;DHT22;13731;51.166;4.474;2024-02-14T08:11:19;10.80;99.90
25933;DHT22;13731;51.166;4.474;2024-02-14T08:13:45;10.80;99.90
25933;DHT22;13731;51.166;4.474;2024-02-14T08:16:11;10.90;99.90
25933;DHT22;13731;51.166;4.474;2024-02-14T08:18:36;11.00;99.90
25933;DHT22;13731;51.166;4.474;2024-02-14T08:21:03;10.90;99.90
25933;DHT22;13731;51.166;4.474;2024-02-14T08:23:29;11.00;99.90
25933;DHT22;13731;51.166;4.474;2024-02-14T08:25:56;10.90;99.90
25933;DHT22;13731;51.166;4.474;2024-02-14T08:28:22;10.90;99.90
25933;DHT22;13731;51.166;4.474;2024-02-14T08:30:48;10.90;99.90
25933;DHT22;13731;51.166;4.474;2024-02-14T08:33:13;10.90;99.90
25933;DHT22;13731;51.166;4.474;2024-02-14T08:35:39;11.00;99.90
25933;DHT22;13731;51.166;4.474;2024-02-14T08:38:05;11.20;99.90
25933;DHT22;13731;51.166;4.474;2024-02-14T08:40:32;11.20;99.90
25933;DHT22;13731;51.166;4.474;2024-02-14T08:42:57;11.20;99.90
25933;DHT22;13731;51.166;4.474;2024-02-14T08:45:24;11.10;99.90
25933;DHT22;13731;51.166;4.474;2024-02-14T08:47:50;11.20;99.90
25933;DHT22;13731;51.166;4.474;2024-02-14T08:50:16;11.20;99.90
25933;DHT22;13731;51.166;4.474;2024-02-14T08:52:42;11.20;99.90
25933;DHT22;13731;51.166;4.474;2024-02-14T08:55:08;11.30;99.90
25933;DHT22;13731;51.166;4.474;2024-02-14T08:57:42;11.40;99.90
25933;DHT22;13731;51.166;4.474;2024-02-14T09:00:08;11.40;99.90
25933;DHT22;13731;51.166;4.474;2024-02-14T09:02:36;11.50;99.90
25933;DHT22;13731;51.166;4.474;2024-02-14T09:05:02;11.50;99.90
25933;DHT22;13731;51.166;4.474;2024-02-14T09:07:30;11.40;99.90
25933;DHT22;13731;51.166;4.474;2024-02-14T09:09:57;11.40;99.90
25933;DHT22;13731;51.166;4.474;2024-02-14T09:12:22;11.50;99.90
25933;DHT22;13731;51.166;4.474;2024-02-14T09:14:48;11.50;99.90
25933;DHT22;13731;51.166;4.474;2024-02-14T09:17:14;11.50;99.90
25933;DHT22;13731;51.166;4.474;2024-02-14T09:19:40;11.60;99.90
25933;DHT22;13731;51.166;4.474;2024-02-14T09:22:06;11.60;99.90
25933;DHT22;13731;51.166;4.474;2024-02-14T09:24:32;11.70;99.90
25933;DHT22;13731;51.166;4.474;2024-02-14T09:26:58;11.70;99.90
25933;DHT22;13731;51.166;4.474;2024-02-14T09:29:24;11.60;99.90
25933;DHT22;13731;51.166;4.474;2024-02-14T09:31:53;11.70;99.90
25933;DHT22;13731;51.166;4.474;2024-02-14T09:34:18;11.60;99.90
25933;DHT22;13731;51.166;4.474;2024-02-14T09:36:47;11.70;99.90
25933;DHT22;13731;51.166;4.474;2024-02-14T09:39:15;11.70;99.90
25933;DHT22;13731;51.166;4.474;2024-02-14T09:41:43;11.60;99.90
25933;DHT22;13731;51.166;4.474;2024-02-14T09:44:09;11.60;99.90
25933;DHT22;13731;51.166;4.474;2024-02-14T09:46:35;11.60;99.90
25933;DHT22;13731;51.166;4.474;2024-02-14T09:49:03;11.60;99.90
25933;DHT22;13731;51.166;4.474;2024-02-14T09:51:29;11.70;99.90
25933;DHT22;13731;51.166;4.474;2024-02-14T09:53:56;11.80;99.90
25933;DHT22;13731;51.166;4.474;2024-02-14T09:56:24;11.70;99.90
25933;DHT22;13731;51.166;4.474;2024-02-14T09:58:51;11.80;99.90
25933;DHT22;13731;51.166;4.474;2024-02-14T10:01:25;11.70;99.90
25933;DHT22;13731;51.166;4.474;2024-02-14T10:03:51;11.60;99.90
25933;DHT22;13731;51.166;4.474;2024-02-14T10:06:17;11.60;99.90
25933;DHT22;13731;51.166;4.474;2024-02-14T10:08:43;11.60;99.90
25933;DHT22;13731;51.166;4.474;2024-02-14T10:11:08;11.60;99.90
25933;DHT22;13731;51.166;4.474;2024-02-14T10:13:36;11.70;99.90
25933;DHT22;13731;51.166;4.474;2024-02-14T10:16:01;11.70;99.90
25933;DHT22;13731;51.166;4.474;2024-02-14T10:18:29;11.80;99.90
25933;DHT22;13731;51.166;4.474;2024-02-14T10:20:56;11.80;99.90
25933;DHT22;13731;51.166;4.474;2024-02-14T10:23:22;11.90;99.90
25933;DHT22;13731;51.166;4.474;2024-02-14T10:25:54;11.80;99.90
25933;DHT22;13731;51.166;4.474;2024-02-14T10:28:21;11.80;99.90
25933;DHT22;13731;51.166;4.474;2024-02-14T10:30:47;11.80;99.90
25933;DHT22;13731;51.166;4.474;2024-02-14T10:33:15;11.90;99.90
25933;DHT22;13731;51.166;4.474;2024-02-14T10:35:41;11.90;99.90
25933;DHT22;13731;51.166;4.474;2024-02-14T10:38:08;11.80;99.90
25933;DHT22;13731;51.166;4.474;2024-02-14T10:40:35;11.80;99.90
25933;DHT22;13731;51.166;4.474;2024-02-14T10:43:01;11.80;99.90
25933;DHT22;13731;51.166;4.474;2024-02-14T10:45:27;11.70;99.90
25933;DHT22;13731;51.166;4.474;2024-02-14T10:47:53;11.70;99.90
25933;DHT22;13731;51.166;4.474;2024-02-14T10:50:22;11.70;99.90
25933;DHT22;13731;51.166;4.474;2024-02-14T10:52:48;11.80;99.90
25933;DHT22;13731;51.166;4.474;2024-02-14T10:55:15;11.80;99.90
25933;DHT22;13731;51.166;4.474;2024-02-14T10:57:41;11.80;99.90
25933;DHT22;13731;51.166;4.474;2024-02-14T11:00:08;11.90;99.90
25933;DHT22;13731;51.166;4.474;2024-02-14T11:02:35;11.80;99.90
25933;DHT22;13731;51.166;4.474;2024-02-14T11:05:02;11.80;99.90
25933;DHT22;13731;51.166;4.474;2024-02-14T11:07:28;11.80;99.90
25933;DHT22;13731;51.166;4.474;2024-02-14T11:10:04;11.80;99.90
25933;DHT22;13731;51.166;4.474;2024-02-14T11:12:33;11.80;99.90
25933;DHT22;13731;51.166;4.474;2024-02-14T11:15:01;11.70;99.90
25933;DHT22;13731;51.166;4.474;2024-02-14T11:17:27;11.70;99.90
25933;DHT22;13731;51.166;4.474;2024-02-14T11:19:53;11.70;99.90
25933;DHT22;13731;51.166;4.474;2024-02-14T11:22:19;11.70;99.90
25933;DHT22;13731;51.166;4.474;2024-02-14T11:24:45;11.60;99.90
25933;DHT22;13731;51.166;4.474;2024-02-14T11:27:11;11.60;99.90
25933;DHT22;13731;51.166;4.474;2024-02-14T11:29:40;11.70;99.90
25933;DHT22;13731;51.166;4.474;2024-02-14T11:32:07;11.70;99.90
25933;DHT22;13731;51.166;4.474;2024-02-14T11:34:35;11.70;99.90
25933;DHT22;13731;51.166;4.474;2024-02-14T11:37:01;11.70;99.90
25933;DHT22;13731;51.166;4.474;2024-02-14T11:39:27;11.70;99.90
25933;DHT22;13731;51.166;4.474;2024-02-14T11:41:52;11.80;99.90
25933;DHT22;13731;51.166;4.474;2024-02-14T11:44:18;11.70;99.90
25933;DHT22;13731;51.166;4.474;2024-02-14T11:46:45;11.70;99.90
25933;DHT22;13731;51.166;4.474;2024-02-14T11:49:11;11.70;99.90
25933;DHT22;13731;51.166;4.474;2024-02-14T11:51:37;11.80;99.90
25933;DHT22;13731;51.166;4.474;2024-02-14T11:54:10;11.90;99.90
25933;DHT22;13731;51.166;4.474;2024-02-14T11:56:38;11.80;99.90
25933;DHT22;13731;51.166;4.474;2024-02-14T11:59:06;11.80;99.90
25933;DHT22;13731;51.166;4.474;2024-02-14T12:01:35;11.80;99.90
25933;DHT22;13731;51.166;4.474;2024-02-14T12:04:02;11.80;99.90
25933;DHT22;13731;51.166;4.474;2024-02-14T12:06:28;11.80;99.90
25933;DHT22;13731;51.166;4.474;2024-02-14T12:08:54;11.80;99.90
25933;DHT22;13731;51.166;4.474;2024-02-14T12:11:20;11.90;99.90
25933;DHT22;13731;51.166;4.474;2024-02-14T12:13:49;11.90;99.90
25933;DHT22;13731;51.166;4.474;2024-02-14T12:16:15;11.90;99.90
25933;DHT22;13731;51.166;4.474;2024-02-14T12:18:41;11.90;99.90
25933;DHT22;13731;51.166;4.474;2024-02-14T12:21:11;12.00;99.90
25933;DHT22;13731;51.166;4.474;2024-02-14T12:23:37;12.00;99.90
25933;DHT22;13731;51.166;4.474;2024-02-14T12:26:03;12.00;99.90
25933;DHT22;13731;51.166;4.474;2024-02-14T12:28:30;12.00;99.90
25933;DHT22;13731;51.166;4.474;2024-02-14T12:30:56;12.00;99.90
25933;DHT22;13731;51.166;4.474;2024-02-14T12:33:22;12.10;99.90
25933;DHT22;13731;51.166;4.474;2024-02-14T12:35:53;12.20;99.90
25933;DHT22;13731;51.166;4.474;2024-02-14T12:38:20;12.10;99.90
25933;DHT22;13731;51.166;4.474;2024-02-14T12:40:46;12.20;99.90
25933;DHT22;13731;51.166;4.474;2024-02-14T12:43:12;12.10;99.90
25933;DHT22;13731;51.166;4.474;2024-02-14T12:45:38;12.20;99.90
25933;DHT22;13731;51.166;4.474;2024-02-14T12:48:04;12.20;99.90
25933;DHT22;13731;51.166;4.474;2024-02-14T12:50:30;12.30;99.90
25933;DHT22;13731;51.166;4.474;2024-02-14T12:52:56;12.30;99.90
25933;DHT22;13731;51.166;4.474;2024-02-14T12:55:22;12.30;99.90
25933;DHT22;13731;51.166;4.474;2024-02-14T12:57:54;12.30;99.90
25933;DHT22;13731;51.166;4.474;2024-02-14T13:00:20;12.40;99.90
25933;DHT22;13731;51.166;4.474;2024-02-14T13:02:47;12.40;99.90
25933;DHT22;13731;51.166;4.474;2024-02-14T13:05:13;12.30;99.90
25933;DHT22;13731;51.166;4.474;2024-02-14T13:07:40;12.30;99.90
25933;DHT22;13731;51.166;4.474;2024-02-14T13:10:06;12.40;99.90
25933;DHT22;13731;51.166;4.474;2024-02-14T13:12:33;12.40;99.90
25933;DHT22;13731;51.166;4.474;2024-02-14T13:14:59;12.40;99.90
25933;DHT22;13731;51.166;4.474;2024-02-14T13:17:25;12.40;99.90
25933;DHT22;13731;51.166;4.474;2024-02-14T13:19:52;12.40;99.90
25933;DHT22;13731;51.166;4.474;2024-02-14T13:22:18;12.40;99.90
25933;DHT22;13731;51.166;4.474;2024-02-14T13:24:44;12.40;99.90
25933;DHT22;13731;51.166;4.474;2024-02-14T13:27:10;12.40;99.90
25933;DHT22;13731;51.166;4.474;2024-02-14T13:29:36;12.40;99.90
25933;DHT22;13731;51.166;4.474;2024-02-14T13:32:01;12.50;99.90
25933;DHT22;13731;51.166;4.474;2024-02-14T13:34:28;12.50;99.90
25933;DHT22;13731;51.166;4.474;2024-02-14T13:36:54;12.40;99.90
25933;DHT22;13731;51.166;4.474;2024-02-14T13:39:19;12.40;99.90
25933;DHT22;13731;51.166;4.474;2024-02-14T13:41:45;12.50;99.90
25933;DHT22;13731;51.166;4.474;2024-02-14T13:44:11;12.50;99.90
25933;DHT22;13731;51.166;4.474;2024-02-14T13:46:37;12.70;99.90
25933;DHT22;13731;51.166;4.474;2024-02-14T13:49:03;12.70;99.90
25933;DHT22;13731;51.166;4.474;2024-02-14T13:51:28;12.60;99.90
25933;DHT22;13731;51.166;4.474;2024-02-14T13:53:54;12.50;99.90
25933;DHT22;13731;51.166;4.474;2024-02-14T13:56:21;12.50;99.90
25933;DHT22;13731;51.166;4.474;2024-02-14T13:58:48;12.60;99.90
25933;DHT22;13731;51.166;4.474;2024-02-14T14:01:16;12.60;99.90
25933;DHT22;13731;51.166;4.474;2024-02-14T14:03:43;12.50;99.90
25933;DHT22;13731;51.166;4.474;2024-02-14T14:06:08;12.50;99.90
25933;DHT22;13731;51.166;4.474;2024-02-14T14:08:35;12.50;99.90
25933;DHT22;13731;51.166;4.474;2024-02-14T14:11:04;12.50;99.90
25933;DHT22;13731;51.166;4.474;2024-02-14T14:13:30;12.50;99.90
25933;DHT22;13731;51.166;4.474;2024-02-14T14:15:59;12.50;99.90
25933;DHT22;13731;51.166;4.474;2024-02-14T14:18:24;12.50;99.90
25933;DHT22;13731;51.166;4.474;2024-02-14T14:20:50;12.50;99.90
25933;DHT22;13731;51.166;4.474;2024-02-14T14:23:16;12.60;99.90
25933;DHT22;13731;51.166;4.474;2024-02-14T14:25:41;12.60;99.90
25933;DHT22;13731;51.166;4.474;2024-02-14T14:28:07;12.70;99.90
25933;DHT22;13731;51.166;4.474;2024-02-14T14:30:35;12.70;99.90
25933;DHT22;13731;51.166;4.474;2024-02-14T14:33:01;12.60;99.90
25933;DHT22;13731;51.166;4.474;2024-02-14T14:35:27;12.60;99.90
25933;DHT22;13731;51.166;4.474;2024-02-14T14:37:54;12.60;99.90
25933;DHT22;13731;51.166;4.474;2024-02-14T14:40:20;12.70;99.90
25933;DHT22;13731;51.166;4.474;2024-02-14T14:42:47;12.70;99.90
25933;DHT22;13731;51.166;4.474;2024-02-14T14:45:12;12.70;99.90
25933;DHT22;13731;51.166;4.474;2024-02-14T14:47:38;12.70;99.90
25933;DHT22;13731;51.166;4.474;2024-02-14T14:50:04;12.70;99.90
25933;DHT22;13731;51.166;4.474;2024-02-14T14:52:31;12.70;99.90
25933;DHT22;13731;51.166;4.474;2024-02-14T14:54:56;12.80;99.90
25933;DHT22;13731;51.166;4.474;2024-02-14T14:57:22;12.80;99.90
25933;DHT22;13731;51.166;4.474;2024-02-14T14:59:49;12.90;99.90
25933;DHT22;13731;51.166;4.474;2024-02-14T15:02:14;13.00;99.90
25933;DHT22;13731;51.166;4.474;2024-02-14T15:04:40;13.00;99.90
25933;DHT22;13731;51.166;4.474;2024-02-14T15:07:09;12.90;99.90
25933;DHT22;13731;51.166;4.474;2024-02-14T15:09:35;12.80;99.90
25933;DHT22;13731;51.166;4.474;2024-02-14T15:12:00;12.80;99.90
25933;DHT22;13731;51.166;4.474;2024-02-14T15:14:26;12.70;99.90
25933;DHT22;13731;51.166;4.474;2024-02-14T15:16:52;12.90;99.90
25933;DHT22;13731;51.166;4.474;2024-02-14T15:19:18;12.90;99.90
25933;DHT22;13731;51.166;4.474;2024-02-14T15:21:43;12.80;99.90
25933;DHT22;13731;51.166;4.474;2024-02-14T15:24:09;12.70;99.90
25933;DHT22;13731;51.166;4.474;2024-02-14T15:26:35;12.70;99.90
25933;DHT22;13731;51.166;4.474;2024-02-14T15:29:18;12.80;99.90
25933;DHT22;13731;51.166;4.474;2024-02-14T15:32:02;12.70;99.90